createdAt,value
2023-04-26T12:33:17.539Z,1.50
2023-04-26T12:35:47.699Z,1.30
2023-04-26T12:38:18.735Z,1.40
2023-04-26T12:40:47.886Z,1.60
2023-04-26T12:43:17.302Z,1.50
2023-04-26T12:45:47.509Z,1.40
2023-04-26T12:48:17.336Z,1.60
2023-04-26T12:50:47.826Z,1.50
2023-04-26T12:53:18.097Z,1.40
2023-04-26T12:55:47.392Z,1.20
2023-04-26T12:58:16.769Z,1.30
2023-04-26T13:00:47.071Z,1.00
2023-04-26T13:03:22.955Z,1.30
2023-04-26T13:05:54.570Z,1.10
2023-04-26T13:08:26.450Z,1.40
2023-04-26T13:10:58.130Z,1.10
2023-04-26T13:13:42.160Z,1.40
2023-04-26T13:16:13.635Z,1.30
2023-04-26T13:18:43.056Z,1.50
2023-04-26T13:21:12.729Z,1.40
2023-04-26T13:23:42.168Z,1.50
2023-04-26T13:26:14.592Z,1.20
2023-04-26T13:28:47.017Z,1.10
2023-04-26T13:31:17.124Z,1.10
2023-04-26T13:33:48.633Z,1.00
2023-04-26T13:36:21.759Z,1.00
2023-04-26T13:38:52.798Z,1.00
2023-04-26T13:41:23.400Z,1.00
2023-04-26T13:43:55.359Z,1.00
2023-04-26T13:46:25.084Z,1.00
2023-04-26T13:48:55.192Z,1.60
2023-04-26T13:51:26.656Z,0.90
2023-04-26T13:53:56.355Z,1.20
2023-04-26T13:56:27.290Z,1.30
2023-04-26T13:58:57.615Z,1.50
2023-04-26T14:01:27.538Z,1.20
2023-04-26T14:03:58.200Z,1.10
2023-04-26T14:06:28.339Z,1.10
2023-04-26T14:08:58.006Z,1.10
2023-04-26T14:11:27.678Z,1.10
2023-04-26T14:13:58.415Z,1.30
2023-04-26T14:16:28.205Z,1.20
2023-04-26T14:18:59.173Z,1.30
2023-04-26T14:21:28.297Z,1.30
2023-04-26T14:23:57.561Z,1.20
2023-04-26T14:26:27.198Z,1.40
2023-04-26T14:28:57.027Z,1.40
2023-04-26T14:31:27.567Z,1.30
2023-04-26T14:33:56.927Z,1.60
2023-04-26T14:36:27.573Z,1.60
2023-04-26T14:38:56.744Z,1.60
2023-04-26T14:41:26.088Z,1.90
2023-04-26T14:43:55.572Z,1.70
2023-04-26T14:46:24.821Z,1.80
2023-04-26T14:48:54.776Z,1.50
2023-04-26T14:51:23.888Z,1.80
2023-04-26T14:53:53.370Z,1.60
2023-04-26T14:56:23.221Z,1.40
2023-04-26T14:58:52.459Z,1.40
2023-04-26T15:01:21.599Z,1.40
2023-04-26T15:03:50.947Z,1.30
2023-04-26T15:06:20.781Z,1.40
2023-04-26T15:08:50.882Z,1.10
2023-04-26T15:11:20.562Z,1.50
2023-04-26T15:13:49.841Z,1.70
2023-04-26T15:16:19.415Z,1.50
2023-04-26T15:18:48.544Z,1.10
2023-04-26T15:21:18.927Z,1.10
2023-04-26T15:23:49.064Z,1.00
2023-04-26T15:26:18.803Z,1.00
2023-04-26T15:28:48.544Z,0.90
2023-04-26T15:31:17.767Z,0.90
2023-04-26T15:33:48.493Z,0.90
2023-04-26T15:36:21.407Z,0.90
2023-04-26T15:38:51.298Z,1.00
2023-04-26T15:41:20.657Z,0.70
2023-04-26T15:43:55.762Z,1.10
2023-04-26T15:46:25.720Z,0.90
2023-04-26T15:48:55.411Z,0.80
2023-04-26T15:51:24.611Z,1.00
2023-04-26T15:53:55.572Z,1.00
2023-04-26T15:56:25.777Z,0.90
2023-04-26T15:58:56.677Z,0.90
2023-04-26T16:01:29.494Z,1.00
2023-04-26T16:03:59.732Z,1.10
2023-04-26T16:06:33.408Z,1.20
2023-04-26T16:09:17.260Z,1.10
2023-04-26T16:11:53.989Z,1.20
2023-04-26T16:14:23.628Z,1.40
2023-04-26T16:16:52.953Z,1.50
2023-04-26T16:19:27.557Z,1.30
2023-04-26T16:21:58.932Z,1.60
2023-04-26T16:24:29.359Z,1.80
2023-04-26T16:26:58.627Z,1.60
2023-04-26T16:29:30.367Z,1.80
2023-04-26T16:32:00.279Z,1.70
2023-04-26T16:34:30.240Z,2.00
2023-04-26T16:36:59.745Z,1.90
2023-04-26T16:39:29.374Z,1.70
2023-04-26T16:41:58.675Z,1.60
2023-04-26T16:44:28.392Z,1.60
2023-04-26T16:46:58.704Z,1.60
2023-04-26T16:49:29.269Z,2.10
2023-04-26T16:52:01.306Z,2.70
2023-04-26T16:54:30.746Z,1.80
2023-04-26T16:57:00.221Z,1.60
2023-04-26T16:59:30.334Z,2.50
2023-04-26T17:02:30.047Z,1.80
2023-04-26T17:04:59.986Z,1.40
2023-04-26T17:07:30.177Z,1.80
2023-04-26T17:10:07.469Z,1.60
2023-04-26T17:12:36.866Z,2.00
2023-04-26T17:15:08.270Z,1.70
2023-04-26T17:17:38.390Z,1.90
2023-04-26T17:20:13.618Z,1.70
2023-04-26T17:22:44.355Z,1.70
2023-04-26T17:25:14.934Z,1.80
2023-04-26T17:27:46.430Z,1.80
2023-04-26T17:30:18.766Z,1.90
2023-04-26T17:32:48.216Z,2.00
2023-04-26T17:35:17.348Z,1.70
2023-04-26T17:37:49.334Z,2.00
2023-04-26T17:40:19.288Z,1.70
2023-04-26T17:42:48.457Z,1.80
2023-04-26T17:45:26.480Z,1.40
2023-04-26T17:47:58.260Z,1.80
2023-04-26T17:50:35.777Z,1.90
2023-04-26T17:53:06.325Z,1.60
2023-04-26T17:55:37.440Z,1.70
2023-04-26T17:58:14.852Z,2.00
2023-04-26T18:00:46.295Z,1.90
2023-04-26T18:03:20.765Z,1.70
2023-04-26T18:05:58.504Z,1.90
2023-04-26T18:08:30.297Z,1.80
2023-04-26T18:11:02.866Z,2.00
2023-04-26T18:13:33.825Z,2.00
2023-04-26T18:16:17.537Z,2.10
2023-04-26T18:18:51.386Z,2.10
2023-04-26T18:21:21.853Z,2.00
2023-04-26T18:23:53.659Z,2.10
2023-04-26T18:26:25.906Z,2.20
2023-04-26T18:28:57.856Z,2.10
2023-04-26T18:31:31.138Z,2.50
2023-04-26T18:34:02.084Z,2.20
2023-04-26T18:36:32.199Z,2.30
2023-04-26T18:39:01.532Z,2.40
2023-04-26T18:41:35.556Z,2.20
2023-04-26T18:44:20.324Z,2.10
2023-04-26T18:46:55.178Z,1.90
2023-04-26T18:49:26.835Z,1.80
2023-04-26T18:51:58.004Z,1.40
2023-04-26T18:54:27.384Z,1.70
2023-04-26T18:56:57.378Z,1.60
2023-04-26T18:59:27.603Z,1.30
2023-04-26T19:02:01.211Z,1.60
2023-04-26T19:04:42.303Z,1.50
2023-04-26T19:07:18.354Z,1.50
2023-04-26T19:09:54.771Z,1.40
2023-04-26T19:12:26.925Z,1.50
2023-04-26T19:14:57.230Z,1.50
2023-04-26T19:17:40.756Z,1.80
2023-04-26T19:20:13.631Z,1.80
2023-04-26T19:22:54.168Z,1.70
2023-04-26T19:25:34.076Z,1.70
2023-04-26T19:28:03.992Z,1.90
2023-04-26T19:30:37.070Z,1.70
2023-04-26T19:33:09.431Z,1.60
2023-04-26T19:35:39.372Z,1.90
2023-04-26T19:38:11.437Z,1.60
2023-04-26T19:40:44.062Z,1.60
2023-04-26T19:45:00.829Z,1.70
2023-04-26T19:46:59.193Z,1.60
2023-04-26T19:49:31.170Z,1.60
2023-04-26T19:52:02.776Z,1.70
2023-04-26T19:54:35.430Z,1.20
2023-04-26T19:57:05.050Z,1.30
2023-04-26T19:59:45.470Z,1.30
2023-04-26T20:02:15.485Z,1.10
2023-04-26T20:04:46.368Z,1.30
2023-04-26T20:07:16.421Z,1.30
2023-04-26T20:09:46.131Z,1.30
2023-04-26T20:12:16.491Z,1.30
2023-04-26T20:14:47.218Z,1.30
2023-04-26T20:17:16.557Z,1.30
2023-04-26T20:20:11.632Z,1.30
2023-04-26T20:22:41.727Z,1.60
2023-04-26T20:25:13.367Z,1.60
2023-04-26T20:27:43.909Z,1.60
2023-04-26T20:30:14.321Z,1.70
2023-04-26T20:32:46.768Z,1.60
2023-04-26T20:35:16.779Z,1.70
2023-04-26T20:37:47.951Z,1.80
2023-04-26T20:40:21.864Z,1.90
2023-04-26T20:42:52.156Z,1.70
2023-04-26T20:45:22.495Z,1.90
2023-04-26T20:47:54.435Z,1.60
2023-04-26T20:50:26.036Z,1.80
2023-04-26T20:52:56.114Z,1.60
2023-04-26T20:55:30.844Z,1.60
2023-04-26T20:58:02.128Z,1.60
2023-04-26T21:00:31.954Z,1.80
2023-04-26T21:03:01.365Z,1.50
2023-04-26T21:05:34.188Z,1.60
2023-04-26T21:08:04.388Z,1.50
2023-04-26T21:10:34.415Z,1.70
2023-04-26T21:13:06.215Z,1.70
2023-04-26T21:15:36.685Z,1.50
2023-04-26T21:18:10.099Z,1.50
2023-04-26T21:20:39.583Z,1.80
2023-04-26T21:23:09.160Z,1.50
2023-04-26T21:25:39.398Z,1.50
2023-04-26T21:28:09.996Z,1.90
2023-04-26T21:30:41.360Z,1.70
2023-04-26T21:33:11.922Z,1.70
2023-04-26T21:35:41.573Z,2.00
2023-04-26T21:38:11.253Z,1.60
2023-04-26T21:40:42.994Z,2.20
2023-04-26T21:43:15.528Z,1.90
2023-04-26T21:45:44.885Z,1.70
2023-04-26T21:48:14.100Z,1.70
2023-04-26T21:50:43.494Z,1.90
2023-04-26T21:53:12.845Z,1.70
2023-04-26T21:55:42.050Z,1.70
2023-04-26T21:58:11.271Z,1.80
2023-04-26T22:00:40.603Z,2.00
2023-04-26T22:03:09.827Z,1.80
2023-04-26T22:05:39.350Z,2.00
2023-04-26T22:08:08.829Z,2.00
2023-04-26T22:10:38.323Z,2.00
2023-04-26T22:13:07.733Z,1.90
2023-04-26T22:15:37.964Z,2.40
2023-04-26T22:18:10.382Z,2.40
2023-04-26T22:20:39.584Z,2.40
2023-04-26T22:23:09.363Z,2.20
2023-04-26T22:25:38.918Z,2.40
2023-04-26T22:28:08.264Z,2.60
2023-04-26T22:30:37.558Z,2.40
2023-04-26T22:33:06.995Z,2.10
2023-04-26T22:35:36.571Z,2.40
2023-04-26T22:38:06.131Z,2.20
2023-04-26T22:40:35.808Z,2.40
2023-04-26T22:43:05.092Z,2.20
2023-04-26T22:45:34.734Z,2.30
2023-04-26T22:48:06.072Z,2.40
2023-04-26T22:50:39.557Z,2.30
2023-04-26T22:53:09.053Z,2.00
2023-04-26T22:55:39.370Z,2.50
2023-04-26T22:58:08.734Z,2.70
2023-04-26T23:00:38.057Z,2.60
2023-04-26T23:03:07.544Z,2.30
2023-04-26T23:05:37.589Z,2.50
2023-04-26T23:08:07.446Z,2.70
2023-04-26T23:10:38.290Z,2.50
2023-04-26T23:13:07.553Z,2.50
2023-04-26T23:15:37.032Z,2.40
2023-04-26T23:18:06.582Z,2.70
2023-04-26T23:20:36.268Z,3.10
2023-04-26T23:23:06.162Z,2.80
2023-04-26T23:25:35.689Z,2.60
2023-04-26T23:28:06.027Z,2.90
2023-04-26T23:30:35.726Z,2.60
2023-04-26T23:33:06.721Z,2.90
2023-04-26T23:35:41.654Z,2.60
2023-04-26T23:38:11.529Z,2.70
2023-04-26T23:40:40.604Z,2.90
2023-04-26T23:43:12.569Z,2.90
2023-04-26T23:45:46.934Z,3.10
2023-04-26T23:48:17.803Z,2.70
2023-04-26T23:50:47.122Z,3.10
2023-04-26T23:53:16.734Z,2.50
2023-04-26T23:55:46.554Z,3.00
2023-04-26T23:58:15.850Z,2.60
